Bronson, MI (49028)

9:58 AM EST on November 28, 2014 (GMT -0500)
Branch County Memorial | Change Station
CLOSE
Current Station
Airport
Location: Coldwater,
Elevation: 958 ft
Nearby Weather Stations

Elev 958 ft 41.93 °N, 85.05 °W | Updated 24 minutes ago

Overcast
Overcast
24 °F
Feels Like 19 °F
N
4
Wind Variable Wind from SSW

Today
High -- | Low -- °F
--% Chance of Precip.
Yesterday
High -- | Low -- °F
Precip. -- in
7:45 AM 5:11 PM
Waxing Crescent, 41% visible
Pressure 30.29 in
Visibility 10.0 miles
Clouds Scattered Clouds 7500 ft
Overcast 9000 ft
Windchill 19 °F
Dew Point 16 °F
Humidity 73%
Rainfall 0.00 in
Snow Depth Not available.
UV 0 out of 12
Pollen .10 out of 12
Air Quality Not available.
Flu Activity Not available.
METAR KOEB 281434Z AUTO 21003KT 10SM SCT075 OVC090 M05/M09 A3029 RMK AO2 T10461088

More Conditions Fewer Conditions

Pressure 30.29 in
Visibility 10.0 miles
Clouds Scattered Clouds 7500 ft
Overcast 9000 ft
Windchill 19 °F
Dew Point 16 °F
Humidity 73%
Rainfall 0.00 in
Snow Depth Not available.
UV 0 out of 12
Pollen .10 out of 12
Air Quality Not available.
Flu Activity Not available.
METAR KOEB 281434Z AUTO 21003KT 10SM SCT075 OVC090 M05/M09 A3029 RMK AO2 T10461088

More Conditions Fewer Conditions

10-Day Weather Forecast

Almanac

Astronomy

Nov. 28, 2014 Rise Set
Actual Time
Civil Twilight
Nautical Twilight
Astronomical Twilight
Moon
Length of Visible Light
Length of Day
Tomorrow will be .
, % of the Moon is Illuminated

Today's Extremes

State Highs State Lows

Community

WunderPhotos

Upload Photos

1,774,222 photos uploaded!

WunderBlogs® & News

Nearby

Air Quality

  Air Quality AQ Index Pollutant
Not available.

Snow Depth

Station Depth Elevation

Earthquake Activity

City Distance Mag. Time & Date
Minimum magnitude displayed is 2.5.

Coastal Water Temperatures

Place Temperature

Nearby Weather Stations